Time;durP1;ratioP1;P1;durP2;ratioP2;P2;SDS_P1;SDS_P2;PMS_P1;PMS_P2;Temp;Humidity;BMP_temperature;BMP_pressure;BME280_temperature;BME280_humidity;BME280_pressure;Samples;Min_cycle;Max_cycle;Signal;HPM_P1;HPM_P2
2023/09/13 00:01:13;;;;;;;10.43;1.77;;;18.00;99.90;;;;;;4998440;28;20057;-87
2023/09/13 00:03:40;;;;;;;8.07;1.70;;;18.00;99.90;;;;;;4982228;28;20042;-87
2023/09/13 00:06:06;;;;;;;8.43;1.83;;;18.00;99.90;;;;;;4982259;28;20064;-86
2023/09/13 00:08:33;;;;;;;7.63;2.25;;;17.90;99.90;;;;;;5003316;28;20061;-87
2023/09/13 00:11:06;;;;;;;6.38;1.92;;;17.90;99.90;;;;;;5018003;28;20041;-87
2023/09/13 00:13:33;;;;;;;7.35;1.85;;;18.00;99.90;;;;;;5000943;28;20044;-86
2023/09/13 00:15:59;;;;;;;5.10;1.73;;;17.90;99.90;;;;;;5018066;28;20033;-87
2023/09/13 00:18:26;;;;;;;6.25;1.80;;;17.90;99.90;;;;;;5001090;28;20041;-87
2023/09/13 00:20:53;;;;;;;7.65;2.00;;;17.90;99.90;;;;;;5017772;28;20523;-87
2023/09/13 00:23:20;;;;;;;7.82;1.80;;;17.90;99.90;;;;;;5017477;28;20486;-88
2023/09/13 00:25:47;;;;;;;8.32;1.85;;;17.90;99.90;;;;;;5016928;28;20048;-87
2023/09/13 00:28:14;;;;;;;10.50;2.05;;;17.90;99.90;;;;;;5017399;28;20038;-87
2023/09/13 00:30:41;;;;;;;8.93;1.88;;;17.80;99.90;;;;;;4997502;28;20054;-87
2023/09/13 00:33:07;;;;;;;5.20;1.50;;;17.80;99.90;;;;;;4982038;28;20034;-87
2023/09/13 00:35:35;;;;;;;6.72;1.58;;;17.80;99.90;;;;;;4981585;28;20041;-87
2023/09/13 00:38:02;;;;;;;5.05;1.70;;;17.70;99.90;;;;;;4981707;28;20460;-88
2023/09/13 00:40:28;;;;;;;9.85;1.73;;;17.70;99.90;;;;;;4987089;28;20038;-87
2023/09/13 00:42:55;;;;;;;6.53;1.75;;;17.70;99.90;;;;;;4981968;28;20046;-88
2023/09/13 00:45:22;;;;;;;6.78;1.58;;;17.70;99.90;;;;;;4982003;28;20138;-88
2023/09/13 00:47:49;;;;;;;9.50;1.73;;;17.60;99.90;;;;;;4981221;28;20129;-88
2023/09/13 00:50:16;;;;;;;9.15;1.55;;;17.60;99.90;;;;;;4981811;28;20042;-88
2023/09/13 00:52:46;;;;;;;6.70;1.63;;;17.60;99.90;;;;;;5013641;28;20046;-88
2023/09/13 00:55:15;;;;;;;7.47;1.90;;;17.60;99.90;;;;;;5001408;28;20072;-87
2023/09/13 00:57:42;;;;;;;10.10;1.90;;;17.60;99.90;;;;;;5005819;28;20066;-88
2023/09/13 01:00:11;;;;;;;8.80;1.70;;;17.50;99.90;;;;;;4981420;28;20042;-88
2023/09/13 01:02:40;;;;;;;6.18;1.75;;;17.40;99.90;;;;;;4981574;28;20482;-88
2023/09/13 01:05:09;;;;;;;6.88;1.80;;;17.40;99.90;;;;;;4997491;28;20099;-87
2023/09/13 01:07:38;;;;;;;7.05;1.67;;;17.40;99.90;;;;;;5012734;28;20062;-87
2023/09/13 01:10:06;;;;;;;6.60;1.85;;;17.40;99.90;;;;;;4996934;28;20518;-87
2023/09/13 01:12:33;;;;;;;7.03;1.85;;;17.30;99.90;;;;;;4980650;28;20049;-87
2023/09/13 01:15:00;;;;;;;7.75;2.00;;;17.30;99.90;;;;;;5012805;28;20042;-87
2023/09/13 01:18:00;;;;;;;8.02;1.80;;;17.30;99.90;;;;;;4996904;28;20046;-87
2023/09/13 01:20:32;;;;;;;7.35;1.92;;;17.30;99.90;;;;;;5006278;28;20042;-87
2023/09/13 01:23:05;;;;;;;11.32;1.70;;;17.30;99.90;;;;;;4996798;28;20086;-87
2023/09/13 01:25:51;;;;;;;5.18;1.75;;;17.30;99.90;;;;;;4997012;28;20042;-88
2023/09/13 01:28:21;;;;;;;6.07;1.88;;;17.20;99.90;;;;;;4996962;28;20081;-86
2023/09/13 01:30:49;;;;;;;7.57;1.95;;;17.30;99.90;;;;;;5016254;28;20038;-87
2023/09/13 01:33:15;;;;;;;5.95;1.77;;;17.30;99.90;;;;;;5016350;28;20041;-87
2023/09/13 01:35:43;;;;;;;8.27;1.95;;;17.20;99.90;;;;;;5000165;28;20045;-87
2023/09/13 01:38:10;;;;;;;5.82;2.20;;;17.20;99.90;;;;;;5000234;28;20045;-87
2023/09/13 01:40:40;;;;;;;5.95;1.60;;;17.20;99.90;;;;;;5015541;28;20041;-86
2023/09/13 01:43:08;;;;;;;8.02;1.85;;;17.20;99.90;;;;;;5016162;28;20399;-87
2023/09/13 01:45:35;;;;;;;6.20;1.30;;;17.20;99.90;;;;;;5032371;28;20042;-87
2023/09/13 01:48:06;;;;;;;8.98;1.70;;;17.20;99.90;;;;;;4999756;28;20409;-87
2023/09/13 01:50:33;;;;;;;7.50;1.98;;;17.20;99.90;;;;;;5016297;28;20048;-87
2023/09/13 01:53:03;;;;;;;7.00;1.73;;;17.20;99.90;;;;;;4999978;28;20038;-88
2023/09/13 01:55:33;;;;;;;12.35;1.90;;;17.20;99.90;;;;;;5000179;28;20129;-88
2023/09/13 01:58:00;;;;;;;10.02;2.00;;;17.20;99.90;;;;;;5015394;28;20038;-87
2023/09/13 02:00:26;;;;;;;4.40;1.67;;;17.10;99.90;;;;;;5015751;28;20034;-87
2023/09/13 02:02:53;;;;;;;5.07;1.63;;;17.00;99.90;;;;;;4999031;28;20781;-87
2023/09/13 02:05:20;;;;;;;6.20;2.00;;;17.10;99.90;;;;;;4999415;28;20505;-87
2023/09/13 02:07:46;;;;;;;6.75;1.70;;;17.10;99.90;;;;;;5027977;28;20495;-87
2023/09/13 02:10:13;;;;;;;9.65;2.10;;;17.10;99.90;;;;;;5011905;28;20057;-87
2023/09/13 02:12:40;;;;;;;10.63;1.70;;;17.10;99.90;;;;;;4979535;28;20121;-85
2023/09/13 02:15:07;;;;;;;8.43;1.88;;;17.10;99.90;;;;;;4996029;28;20053;-88
2023/09/13 02:17:34;;;;;;;10.15;1.70;;;17.00;99.90;;;;;;4996000;28;20046;-87
2023/09/13 02:20:01;;;;;;;8.55;1.90;;;17.00;99.90;;;;;;5011876;28;20675;-87
2023/09/13 02:22:27;;;;;;;7.97;2.10;;;17.00;99.90;;;;;;4995660;28;20050;-87
2023/09/13 02:24:54;;;;;;;8.80;1.67;;;17.00;99.90;;;;;;4995390;28;20049;-87
2023/09/13 02:27:21;;;;;;;4.20;1.60;;;17.00;99.90;;;;;;4995731;28;20081;-87
2023/09/13 02:29:47;;;;;;;7.30;1.77;;;16.90;99.90;;;;;;4995387;28;20038;-86
2023/09/13 02:32:14;;;;;;;5.28;1.60;;;16.90;99.90;;;;;;4988160;28;20039;-87
2023/09/13 02:34:44;;;;;;;6.55;1.77;;;16.90;99.90;;;;;;4992427;28;20053;-88
2023/09/13 02:37:11;;;;;;;10.93;2.13;;;16.80;99.90;;;;;;4976691;28;20043;-87
2023/09/13 02:39:39;;;;;;;10.57;2.15;;;16.90;99.90;;;;;;4976517;28;20049;-87
2023/09/13 02:42:07;;;;;;;8.73;1.80;;;16.90;99.90;;;;;;4993343;28;20498;-88
2023/09/13 02:44:34;;;;;;;8.95;2.55;;;16.90;99.90;;;;;;5002151;28;20043;-87
2023/09/13 02:47:01;;;;;;;10.55;2.28;;;16.90;99.90;;;;;;5011199;28;20038;-88
2023/09/13 02:49:28;;;;;;;8.13;1.90;;;16.80;99.90;;;;;;5011744;28;20039;-88
2023/09/13 02:51:55;;;;;;;10.45;1.92;;;16.90;99.90;;;;;;4990680;28;20526;-88
2023/09/13 02:54:22;;;;;;;7.60;1.95;;;16.90;99.90;;;;;;4975775;28;20043;-88
2023/09/13 02:56:50;;;;;;;6.95;1.88;;;16.80;99.90;;;;;;4975917;28;20408;-88
2023/09/13 02:59:17;;;;;;;13.07;2.53;;;16.80;99.90;;;;;;4992076;28;20049;-87
2023/09/13 03:01:43;;;;;;;7.30;1.90;;;16.80;99.90;;;;;;4975849;28;20046;-88
2023/09/13 03:04:11;;;;;;;13.77;2.70;;;16.80;99.90;;;;;;4975292;28;20130;-88
2023/09/13 03:06:39;;;;;;;7.32;1.80;;;16.80;99.90;;;;;;4978631;28;20061;-87
2023/09/13 03:09:06;;;;;;;7.43;1.70;;;16.80;99.90;;;;;;4979479;28;20105;-88
2023/09/13 03:11:35;;;;;;;7.38;1.80;;;16.80;99.90;;;;;;4995370;28;20101;-88
2023/09/13 03:14:03;;;;;;;6.80;2.10;;;16.80;99.90;;;;;;4994629;28;20050;-88
2023/09/13 03:16:30;;;;;;;6.53;1.73;;;16.80;99.90;;;;;;5013141;28;20034;-88
2023/09/13 03:18:57;;;;;;;8.60;1.95;;;16.80;99.90;;;;;;5030498;28;20046;-88
2023/09/13 03:21:24;;;;;;;8.32;2.08;;;16.90;99.90;;;;;;5014412;28;20048;-87
2023/09/13 03:23:51;;;;;;;10.13;2.00;;;16.80;99.90;;;;;;5014305;28;20482;-87
2023/09/13 03:26:19;;;;;;;5.53;1.63;;;16.80;99.90;;;;;;4998637;28;20132;-89
2023/09/13 03:28:47;;;;;;;5.45;1.95;;;16.80;99.90;;;;;;5014403;28;20048;-87
2023/09/13 03:31:16;;;;;;;6.18;1.70;;;16.80;99.90;;;;;;5014322;28;20046;-88
2023/09/13 03:33:44;;;;;;;7.45;1.92;;;16.80;99.90;;;;;;5013730;28;20088;-87
2023/09/13 03:36:12;;;;;;;6.97;1.80;;;16.80;99.90;;;;;;5014126;28;20402;-88
2023/09/13 03:38:40;;;;;;;6.75;1.67;;;16.80;99.90;;;;;;4998198;28;20139;-89
2023/09/13 03:41:08;;;;;;;8.07;2.03;;;16.70;99.90;;;;;;5029983;28;20037;-89
2023/09/13 03:43:35;;;;;;;8.63;1.80;;;16.70;99.90;;;;;;5030349;28;20077;-88
2023/09/13 03:46:03;;;;;;;9.63;2.00;;;16.70;99.90;;;;;;4997724;28;20092;-87
2023/09/13 03:48:31;;;;;;;5.78;1.30;;;16.70;99.90;;;;;;5014376;28;20049;-89
2023/09/13 03:50:58;;;;;;;13.43;1.83;;;16.70;99.90;;;;;;5029970;28;20495;-88
2023/09/13 03:53:25;;;;;;;5.50;1.50;;;16.60;99.90;;;;;;4998070;28;20042;-87
2023/09/13 03:55:53;;;;;;;8.05;1.58;;;16.60;99.90;;;;;;4998167;28;20037;-88
2023/09/13 03:58:20;;;;;;;4.43;1.30;;;16.60;99.90;;;;;;4997947;28;20052;-88
2023/09/13 04:00:47;;;;;;;6.32;1.65;;;16.60;99.90;;;;;;5014462;28;20038;-88
2023/09/13 04:03:15;;;;;;;9.20;1.50;;;16.60;99.90;;;;;;5013911;28;20045;-88
2023/09/13 04:05:42;;;;;;;5.82;1.60;;;16.50;99.90;;;;;;5009441;28;20061;-87
2023/09/13 04:08:09;;;;;;;6.95;1.67;;;16.50;99.90;;;;;;4978297;28;20566;-87
2023/09/13 04:10:36;;;;;;;6.18;1.63;;;16.40;99.90;;;;;;4978524;28;20138;-88
2023/09/13 04:13:03;;;;;;;8.48;1.60;;;16.40;99.90;;;;;;4978181;28;20042;-87
2023/09/13 04:15:30;;;;;;;7.38;1.60;;;16.40;99.90;;;;;;4994721;28;20399;-88
2023/09/13 04:17:56;;;;;;;7.05;1.60;;;16.30;99.90;;;;;;5013722;28;20034;-88
2023/09/13 04:20:23;;;;;;;7.38;1.60;;;16.20;99.90;;;;;;5013945;28;20493;-89
2023/09/13 04:22:50;;;;;;;7.13;1.42;;;16.20;99.90;;;;;;4998122;28;20042;-88
2023/09/13 04:25:17;;;;;;;3.60;1.25;;;16.20;99.90;;;;;;4997321;28;20077;-88
2023/09/13 04:27:48;;;;;;;8.10;1.80;;;16.20;99.90;;;;;;4985923;28;20053;-88
2023/09/13 04:30:15;;;;;;;10.05;1.52;;;16.10;99.90;;;;;;4994181;28;20054;-87
2023/09/13 04:32:42;;;;;;;7.47;1.70;;;16.10;99.90;;;;;;4980642;28;20092;-86
2023/09/13 04:35:11;;;;;;;7.93;1.60;;;16.00;99.90;;;;;;4977808;28;20483;-87
2023/09/13 04:37:38;;;;;;;6.03;1.30;;;16.00;99.90;;;;;;5000478;28;20069;-86
2023/09/13 04:40:06;;;;;;;7.57;1.50;;;16.00;99.90;;;;;;5007900;28;20034;-86
2023/09/13 04:42:46;;;;;;;5.18;1.42;;;15.80;99.90;;;;;;4993778;28;20038;-86
2023/09/13 04:45:13;;;;;;;8.63;1.70;;;15.80;99.90;;;;;;4999548;28;20053;-86
2023/09/13 04:47:39;;;;;;;8.10;1.75;;;15.70;99.90;;;;;;4997130;28;20065;-86
2023/09/13 04:50:07;;;;;;;8.85;1.70;;;15.70;99.90;;;;;;4997180;28;20034;-86
2023/09/13 04:52:34;;;;;;;8.55;1.58;;;15.70;99.90;;;;;;4997043;28;20048;-86
2023/09/13 04:55:01;;;;;;;5.65;1.50;;;15.70;99.90;;;;;;4981159;28;20491;-87
2023/09/13 04:57:27;;;;;;;7.30;1.75;;;15.70;99.90;;;;;;4980977;28;20125;-86
2023/09/13 04:59:55;;;;;;;4.55;1.17;;;15.60;99.90;;;;;;5011100;28;20045;-86
2023/09/13 05:02:22;;;;;;;7.68;1.65;;;15.60;99.90;;;;;;4981139;28;20089;-86
2023/09/13 05:04:48;;;;;;;5.53;1.60;;;15.60;99.90;;;;;;4981075;28;20038;-86
2023/09/13 05:07:15;;;;;;;9.15;1.60;;;15.60;99.90;;;;;;4996369;28;20058;-87
2023/09/13 05:09:42;;;;;;;10.48;1.70;;;15.50;99.90;;;;;;5006941;28;20569;-87
2023/09/13 05:12:09;;;;;;;7.63;1.67;;;15.50;99.90;;;;;;5000535;28;20046;-86
2023/09/13 05:14:36;;;;;;;9.27;2.13;;;15.50;99.90;;;;;;5000772;28;20048;-87
2023/09/13 05:17:03;;;;;;;5.75;1.40;;;15.50;99.90;;;;;;5016523;28;20401;-86
2023/09/13 05:19:30;;;;;;;7.95;1.70;;;15.50;99.90;;;;;;5016145;28;20494;-86
2023/09/13 05:21:57;;;;;;;6.43;1.40;;;15.50;99.90;;;;;;5000491;28;20073;-87
2023/09/13 05:24:23;;;;;;;8.90;1.60;;;15.50;99.90;;;;;;4999617;28;20046;-86
2023/09/13 05:26:50;;;;;;;7.45;1.52;;;15.50;99.90;;;;;;5015848;28;20038;-86
2023/09/13 05:29:17;;;;;;;3.97;1.25;;;15.40;99.90;;;;;;4999131;28;20041;-86
2023/09/13 05:31:44;;;;;;;8.60;1.83;;;15.40;99.90;;;;;;5015852;28;20184;-86
2023/09/13 05:34:10;;;;;;;20.45;2.35;;;15.30;99.90;;;;;;4999459;28;20038;-86
2023/09/13 05:36:37;;;;;;;5.30;1.70;;;15.20;99.90;;;;;;5015906;28;20099;-86
2023/09/13 05:39:04;;;;;;;6.68;1.75;;;15.20;99.90;;;;;;4999619;28;20425;-86
2023/09/13 05:41:31;;;;;;;6.90;1.42;;;15.10;99.90;;;;;;4987045;28;20042;-86
2023/09/13 05:43:58;;;;;;;6.53;1.42;;;15.10;99.90;;;;;;4980762;28;20040;-87
2023/09/13 05:46:25;;;;;;;7.05;1.70;;;15.10;99.90;;;;;;4979884;28;20043;-86
2023/09/13 05:48:52;;;;;;;5.15;1.48;;;15.10;99.90;;;;;;4996642;28;20050;-86
2023/09/13 05:51:19;;;;;;;10.18;1.80;;;15.00;99.90;;;;;;5004101;28;20037;-87
2023/09/13 05:53:46;;;;;;;5.88;1.40;;;15.10;99.90;;;;;;5034482;28;20046;-86
2023/09/13 05:56:12;;;;;;;6.68;1.42;;;15.00;99.90;;;;;;4998466;28;20092;-84
2023/09/13 05:58:43;;;;;;;7.07;1.42;;;15.00;99.90;;;;;;4999750;28;20073;-87
2023/09/13 06:01:13;;;;;;;6.28;1.75;;;15.00;99.90;;;;;;4998994;28;20045;-87
2023/09/13 06:03:40;;;;;;;10.65;1.90;;;14.90;99.90;;;;;;4996339;28;20100;-86
2023/09/13 06:06:06;;;;;;;8.80;1.90;;;14.90;99.90;;;;;;4980223;28;20128;-86
2023/09/13 06:08:33;;;;;;;7.80;2.15;;;14.90;99.90;;;;;;5011596;28;20066;-86
2023/09/13 06:11:00;;;;;;;8.00;1.67;;;14.90;99.90;;;;;;4980264;28;20483;-88
2023/09/13 06:13:27;;;;;;;9.90;1.80;;;14.90;99.90;;;;;;4995775;28;20042;-87
2023/09/13 06:15:53;;;;;;;7.32;1.58;;;14.90;99.90;;;;;;4980035;28;20054;-87
2023/09/13 06:18:20;;;;;;;9.57;1.75;;;14.90;99.90;;;;;;4998686;28;20556;-87
2023/09/13 06:20:47;;;;;;;8.73;1.88;;;14.80;99.90;;;;;;5015584;28;20494;-87
2023/09/13 06:23:34;;;;;;;9.05;1.77;;;14.80;99.90;;;;;;4992012;28;20048;-87
2023/09/13 06:26:02;;;;;;;8.10;1.60;;;14.80;99.90;;;;;;5012117;28;20060;-88
2023/09/13 06:28:29;;;;;;;5.90;1.70;;;14.80;99.90;;;;;;4979659;28;20582;-87
2023/09/13 06:30:58;;;;;;;7.80;1.77;;;14.80;99.90;;;;;;4995642;28;20046;-88
2023/09/13 06:33:25;;;;;;;7.38;1.70;;;14.80;99.90;;;;;;5000125;28;20050;-89
2023/09/13 06:35:56;;;;;;;6.82;1.75;;;14.80;99.90;;;;;;4999370;28;20053;-90
2023/09/13 06:38:23;;;;;;;8.57;1.70;;;14.80;99.90;;;;;;5015508;28;20042;-87
2023/09/13 06:40:51;;;;;;;8.30;1.98;;;14.70;99.90;;;;;;5015659;28;20048;-89
2023/09/13 06:43:18;;;;;;;6.05;2.13;;;14.70;99.90;;;;;;4999070;28;20136;-90
2023/09/13 06:45:47;;;;;;;12.88;2.35;;;14.70;99.90;;;;;;4999189;28;20128;-89
2023/09/13 06:48:15;;;;;;;7.88;2.03;;;14.60;99.90;;;;;;4999365;28;20129;-90
2023/09/13 06:50:41;;;;;;;8.00;2.08;;;14.60;99.90;;;;;;4998928;28;20100;-90
2023/09/13 06:53:09;;;;;;;6.95;2.00;;;14.50;99.90;;;;;;4999255;28;20041;-89
2023/09/13 06:55:35;;;;;;;10.48;2.10;;;14.50;99.90;;;;;;4990434;28;20034;-90
2023/09/13 06:58:05;;;;;;;9.30;2.28;;;14.40;99.90;;;;;;4993890;28;20087;-90
2023/09/13 07:00:32;;;;;;;6.63;2.08;;;14.40;99.90;;;;;;4999151;28;20046;-90
2023/09/13 07:03:02;;;;;;;7.05;1.88;;;14.40;99.90;;;;;;4993070;28;20045;-89
2023/09/13 07:05:29;;;;;;;10.00;2.90;;;14.40;99.90;;;;;;5026910;28;20514;-89
2023/09/13 07:07:56;;;;;;;11.13;4.13;;;14.40;99.90;;;;;;4998414;28;20147;-89
2023/09/13 07:10:23;;;;;;;10.68;3.97;;;14.50;99.90;;;;;;4998834;28;20053;-89
2023/09/13 07:12:49;;;;;;;9.45;2.45;;;14.40;99.90;;;;;;4998672;28;20100;-89
2023/09/13 07:15:16;;;;;;;9.10;2.47;;;14.30;99.90;;;;;;4998738;28;20045;-89
2023/09/13 07:17:43;;;;;;;8.93;2.33;;;14.30;99.90;;;;;;4998313;28;20048;-88
2023/09/13 07:20:11;;;;;;;9.60;2.47;;;14.20;99.90;;;;;;4998884;28;20124;-89
2023/09/13 07:22:39;;;;;;;10.23;2.72;;;14.10;99.90;;;;;;4998185;28;20529;-89
2023/09/13 07:25:06;;;;;;;8.95;2.22;;;14.10;99.90;;;;;;5008293;28;20100;-88
2023/09/13 07:27:33;;;;;;;10.15;2.33;;;14.10;99.90;;;;;;4997698;28;20133;-89
2023/09/13 07:30:00;;;;;;;10.43;2.25;;;14.10;99.90;;;;;;4998388;28;20468;-88
2023/09/13 07:32:27;;;;;;;9.02;2.30;;;14.10;99.90;;;;;;5030032;28;20053;-88
2023/09/13 07:34:53;;;;;;;9.50;2.28;;;14.10;99.90;;;;;;4991849;28;20042;-87
2023/09/13 07:37:20;;;;;;;12.50;2.55;;;14.10;99.90;;;;;;4987331;28;20133;-86
2023/09/13 07:39:47;;;;;;;9.88;2.50;;;14.10;99.90;;;;;;4977785;28;20042;-88
2023/09/13 07:42:14;;;;;;;10.27;2.30;;;14.10;99.90;;;;;;4980933;28;20043;-86
2023/09/13 07:44:40;;;;;;;9.40;2.42;;;14.20;99.90;;;;;;4980503;28;20491;-87
2023/09/13 07:47:07;;;;;;;9.38;2.33;;;14.20;99.90;;;;;;4998158;28;20126;-87
2023/09/13 07:49:33;;;;;;;7.63;2.50;;;14.20;99.90;;;;;;4978228;28;20050;-86
2023/09/13 07:52:00;;;;;;;11.35;2.45;;;14.30;99.90;;;;;;5003196;28;20041;-87
2023/09/13 07:54:27;;;;;;;9.30;2.20;;;14.30;99.90;;;;;;4996809;28;20048;-86
2023/09/13 07:56:54;;;;;;;8.80;2.20;;;14.40;99.90;;;;;;4986170;28;20415;-87
2023/09/13 07:59:20;;;;;;;8.70;2.33;;;14.40;99.90;;;;;;4984276;28;20041;-87
2023/09/13 08:01:48;;;;;;;8.52;2.42;;;14.50;99.90;;;;;;4989755;28;20107;-88
2023/09/13 08:04:14;;;;;;;10.65;2.72;;;14.50;99.90;;;;;;4985875;28;20360;-86
2023/09/13 08:06:41;;;;;;;10.38;2.40;;;14.60;99.90;;;;;;4983344;28;20054;-87
2023/09/13 08:09:08;;;;;;;11.38;2.03;;;14.70;99.90;;;;;;4994825;28;20042;-87
2023/09/13 08:11:36;;;;;;;9.20;2.22;;;14.70;99.90;;;;;;4983846;28;20046;-88
2023/09/13 08:14:02;;;;;;;6.53;1.90;;;14.70;99.90;;;;;;4997999;28;20048;-88
2023/09/13 08:16:29;;;;;;;11.05;2.50;;;14.80;99.90;;;;;;5013751;28;20125;-88
2023/09/13 08:18:56;;;;;;;14.57;2.72;;;14.90;99.90;;;;;;4997598;28;20044;-87
2023/09/13 08:21:22;;;;;;;8.68;2.10;;;14.80;99.90;;;;;;5017617;28;20073;-88
2023/09/13 08:23:49;;;;;;;7.35;2.00;;;14.80;99.90;;;;;;5017718;28;20077;-88
2023/09/13 08:26:19;;;;;;;10.45;2.22;;;14.90;99.90;;;;;;5001374;28;20487;-89
2023/09/13 08:28:46;;;;;;;10.30;1.95;;;14.90;99.90;;;;;;5001917;28;20047;-88
2023/09/13 08:31:12;;;;;;;8.68;2.33;;;15.00;99.90;;;;;;4991858;28;20044;-87
2023/09/13 08:33:39;;;;;;;7.45;2.08;;;15.10;99.90;;;;;;4981529;28;20045;-88
2023/09/13 08:36:07;;;;;;;7.97;2.33;;;15.10;99.90;;;;;;4987448;28;20114;-88
2023/09/13 08:38:33;;;;;;;9.55;2.10;;;15.10;99.90;;;;;;4987021;28;20042;-86
2023/09/13 08:41:02;;;;;;;7.43;1.90;;;15.20;99.90;;;;;;4997370;28;20034;-88
2023/09/13 08:43:32;;;;;;;6.53;1.70;;;15.20;99.90;;;;;;5006528;28;20045;-88
2023/09/13 08:46:01;;;;;;;9.75;1.85;;;15.20;99.90;;;;;;4998208;28;20483;-86
2023/09/13 08:48:28;;;;;;;8.75;1.75;;;15.20;99.90;;;;;;5003260;28;20495;-87
2023/09/13 08:50:55;;;;;;;13.52;1.88;;;15.20;99.90;;;;;;4997686;28;20143;-87
2023/09/13 08:53:24;;;;;;;10.57;1.80;;;15.30;99.90;;;;;;4999919;28;20513;-88
2023/09/13 08:55:52;;;;;;;6.03;1.70;;;15.30;99.90;;;;;;5013522;28;20049;-88
2023/09/13 08:58:19;;;;;;;8.00;2.15;;;15.40;99.90;;;;;;4997731;28;20764;-88
2023/09/13 09:00:51;;;;;;;7.05;1.50;;;15.40;99.90;;;;;;4981579;28;20045;-88
2023/09/13 09:03:22;;;;;;;10.52;2.05;;;15.50;99.90;;;;;;4997415;28;20743;-87
2023/09/13 09:05:50;;;;;;;10.55;2.22;;;15.60;99.90;;;;;;4997123;28;20053;-87
2023/09/13 09:08:18;;;;;;;10.18;2.35;;;15.70;99.90;;;;;;4977842;28;20055;-88
2023/09/13 09:10:47;;;;;;;9.20;2.15;;;15.80;99.90;;;;;;4977738;28;20117;-88
2023/09/13 09:13:14;;;;;;;5.30;1.67;;;15.90;99.90;;;;;;4977703;28;20130;-88
2023/09/13 09:15:42;;;;;;;6.05;1.95;;;15.90;99.90;;;;;;4977812;28;20097;-89
2023/09/13 09:18:10;;;;;;;5.05;1.65;;;16.00;99.90;;;;;;5008557;28;20466;-88
2023/09/13 09:20:41;;;;;;;7.00;2.38;;;16.00;99.90;;;;;;4995837;28;20039;-87
2023/09/13 09:23:09;;;;;;;6.85;1.92;;;16.10;99.90;;;;;;4993876;28;20490;-89
2023/09/13 09:25:39;;;;;;;8.82;2.40;;;16.20;99.90;;;;;;4993856;28;20487;-88
2023/09/13 09:28:06;;;;;;;6.75;1.52;;;16.20;99.90;;;;;;4997528;28;20046;-89
2023/09/13 09:30:33;;;;;;;6.50;1.70;;;16.30;99.90;;;;;;5028729;28;20777;-90
2023/09/13 09:33:05;;;;;;;10.43;2.05;;;16.30;99.90;;;;;;5028580;28;20046;-88
2023/09/13 09:35:33;;;;;;;7.50;1.70;;;16.30;99.90;;;;;;5018970;28;20042;-89
2023/09/13 09:37:59;;;;;;;9.98;2.03;;;16.30;99.90;;;;;;4997856;28;20708;-88
2023/09/13 09:40:26;;;;;;;13.20;1.95;;;16.30;99.90;;;;;;4996129;28;20043;-88
2023/09/13 09:42:54;;;;;;;8.40;2.10;;;16.50;99.90;;;;;;5035535;28;20050;-88
2023/09/13 09:45:23;;;;;;;9.23;1.80;;;16.50;99.90;;;;;;4980000;28;20047;-90
2023/09/13 09:47:50;;;;;;;12.77;1.77;;;16.50;99.90;;;;;;4992835;28;20492;-88
2023/09/13 09:50:18;;;;;;;8.93;2.30;;;16.50;99.90;;;;;;4993036;28;20043;-88
2023/09/13 09:52:49;;;;;;;8.68;2.00;;;16.60;99.90;;;;;;4992653;28;20053;-89
2023/09/13 09:55:21;;;;;;;12.07;2.40;;;16.60;99.90;;;;;;4993358;28;20921;-87
2023/09/13 09:57:50;;;;;;;9.50;2.75;;;16.70;99.90;;;;;;4977543;28;20070;-88
2023/09/13 10:00:18;;;;;;;11.13;2.33;;;16.70;99.90;;;;;;5009268;28;20039;-88
2023/09/13 10:02:45;;;;;;;10.20;2.30;;;16.70;99.90;;;;;;4993084;28;20050;-88
2023/09/13 10:05:16;;;;;;;6.63;2.67;;;16.70;99.90;;;;;;4979115;28;20069;-88
2023/09/13 10:07:56;;;;;;;8.80;2.83;;;16.80;99.90;;;;;;5001948;28;20066;-85
2023/09/13 10:10:33;;;;;;;13.65;2.92;;;16.90;99.90;;;;;;4995868;28;20057;-88
2023/09/13 10:13:00;;;;;;;11.07;2.80;;;17.00;99.90;;;;;;5008544;28;20038;-89
2023/09/13 10:15:27;;;;;;;9.60;2.22;;;17.00;99.90;;;;;;5015244;28;20045;-89
2023/09/13 10:17:58;;;;;;;8.55;2.13;;;16.90;99.90;;;;;;4995366;28;20045;-89
2023/09/13 10:20:25;;;;;;;7.60;2.22;;;16.90;99.90;;;;;;5012695;28;20057;-89
2023/09/13 10:22:55;;;;;;;7.03;1.90;;;16.90;99.90;;;;;;4994952;28;20518;-88
2023/09/13 10:25:23;;;;;;;7.60;1.83;;;16.90;99.90;;;;;;4995420;28;20042;-85
2023/09/13 10:27:54;;;;;;;7.47;1.67;;;16.90;99.90;;;;;;4983923;28;20446;-88
2023/09/13 10:30:26;;;;;;;5.28;1.90;;;16.90;99.90;;;;;;5031123;28;20046;-87
2023/09/13 10:32:57;;;;;;;10.68;2.10;;;16.80;99.90;;;;;;5000026;28;20120;-88
2023/09/13 10:35:28;;;;;;;10.25;1.90;;;16.80;99.90;;;;;;5010495;28;20096;-87
2023/09/13 10:38:20;;;;;;;8.10;1.90;;;16.80;99.90;;;;;;5009291;28;20502;-88
2023/09/13 10:41:03;;;;;;;8.27;1.80;;;16.80;99.90;;;;;;5014568;28;20743;-86
2023/09/13 10:43:32;;;;;;;10.60;1.90;;;16.80;99.90;;;;;;5014736;28;20042;-89
2023/09/13 10:46:01;;;;;;;13.68;2.33;;;17.00;99.90;;;;;;5011045;28;20049;-88
2023/09/13 10:48:28;;;;;;;6.80;2.13;;;17.10;99.90;;;;;;4997822;28;20093;-89
2023/09/13 10:50:56;;;;;;;6.40;1.90;;;17.20;99.90;;;;;;4994278;28;20085;-89
2023/09/13 10:53:25;;;;;;;6.45;1.67;;;17.30;99.90;;;;;;4992059;28;20046;-87
2023/09/13 10:55:53;;;;;;;8.50;1.80;;;17.40;99.90;;;;;;4999008;28;20046;-90
2023/09/13 10:58:21;;;;;;;8.93;1.95;;;17.50;99.90;;;;;;4998790;28;20045;-89
2023/09/13 11:00:54;;;;;;;7.35;1.92;;;17.60;99.90;;;;;;5002481;28;20042;-84
2023/09/13 11:03:22;;;;;;;7.90;1.65;;;17.70;99.90;;;;;;4995756;28;20050;-89
2023/09/13 11:05:53;;;;;;;6.90;1.70;;;17.70;99.90;;;;;;4979117;28;20042;-84
2023/09/13 11:08:33;;;;;;;6.13;1.80;;;17.70;99.90;;;;;;4991581;28;20522;-89
2023/09/13 11:11:16;;;;;;;8.07;1.83;;;17.70;99.90;;;;;;4998309;28;20077;-90
2023/09/13 11:13:49;;;;;;;5.95;1.60;;;17.80;99.90;;;;;;5008148;28;20043;-88
2023/09/13 11:16:17;;;;;;;8.00;1.90;;;17.70;99.90;;;;;;5019158;28;20065;-88
2023/09/13 11:18:52;;;;;;;5.35;1.65;;;17.60;99.90;;;;;;4990211;28;20043;-90
2023/09/13 11:21:20;;;;;;;6.10;1.85;;;17.80;99.90;;;;;;4996742;28;20047;-88
2023/09/13 11:23:52;;;;;;;8.35;1.90;;;17.90;99.90;;;;;;5006543;28;20053;-90
2023/09/13 11:26:43;;;;;;;5.18;1.80;;;17.90;99.90;;;;;;4986778;28;20031;-89
2023/09/13 11:29:27;;;;;;;6.90;1.65;;;17.90;99.90;;;;;;5023616;28;20043;-89
2023/09/13 11:32:04;;;;;;;7.65;1.70;;;17.90;99.90;;;;;;5001762;28;20793;-89
2023/09/13 11:34:33;;;;;;;5.35;1.40;;;18.00;99.90;;;;;;4991505;28;20049;-89
2023/09/13 11:37:01;;;;;;;6.93;1.75;;;18.10;99.90;;;;;;5000552;28;20482;-89
2023/09/13 11:39:28;;;;;;;7.43;1.40;;;18.20;99.90;;;;;;5000083;28;20090;-90
2023/09/13 11:41:56;;;;;;;4.70;1.55;;;18.30;99.90;;;;;;5001543;28;20042;-89
2023/09/13 11:44:24;;;;;;;6.88;1.67;;;18.50;99.90;;;;;;5009265;28;20043;-89
2023/09/13 11:46:52;;;;;;;9.23;2.13;;;18.60;99.90;;;;;;4977370;28;20129;-89
2023/09/13 11:49:20;;;;;;;12.43;1.52;;;18.50;99.90;;;;;;4979404;28;20049;-89
2023/09/13 11:51:53;;;;;;;8.23;1.60;;;18.50;99.90;;;;;;4982410;28;20050;-88
2023/09/13 11:54:22;;;;;;;6.93;1.70;;;18.50;99.90;;;;;;4996978;28;20035;-89
2023/09/13 11:56:51;;;;;;;5.80;1.58;;;18.50;99.90;;;;;;4990529;28;20495;-89
2023/09/13 11:59:38;;;;;;;7.63;1.45;;;18.50;99.90;;;;;;5020826;28;20041;-89
2023/09/13 12:02:08;;;;;;;5.50;1.50;;;18.70;99.90;;;;;;4993088;28;20043;-90
2023/09/13 12:04:36;;;;;;;6.90;1.20;;;18.80;99.90;;;;;;5012485;28;20421;-89
2023/09/13 12:07:09;;;;;;;8.32;1.40;;;18.80;99.90;;;;;;5011845;28;20070;-90
2023/09/13 12:09:36;;;;;;;7.50;1.30;;;18.80;99.90;;;;;;5031249;28;20054;-90
2023/09/13 12:12:04;;;;;;;6.63;1.35;;;18.80;99.90;;;;;;5012447;28;20049;-90
2023/09/13 12:14:31;;;;;;;7.93;1.50;;;18.70;99.90;;;;;;4979256;28;20042;-90
2023/09/13 12:16:58;;;;;;;6.47;1.45;;;18.60;99.90;;;;;;4991695;28;20502;-88
2023/09/13 12:19:27;;;;;;;6.32;1.35;;;18.60;99.90;;;;;;4998829;28;20041;-88
2023/09/13 12:21:54;;;;;;;6.95;1.77;;;18.60;99.90;;;;;;4997547;28;20050;-88
2023/09/13 12:24:24;;;;;;;7.03;1.60;;;18.60;99.90;;;;;;4998443;28;20487;-91
2023/09/13 12:26:51;;;;;;;9.82;1.58;;;18.60;99.90;;;;;;5006063;28;20043;-91
2023/09/13 12:29:18;;;;;;;8.18;1.70;;;18.60;99.90;;;;;;4990177;28;20040;-90
2023/09/13 12:31:45;;;;;;;5.90;1.55;;;18.50;99.90;;;;;;5031138;28;20495;-90
2023/09/13 12:34:12;;;;;;;6.97;1.85;;;18.50;99.90;;;;;;4987273;28;20042;-90
2023/09/13 12:36:40;;;;;;;6.60;1.35;;;18.50;99.90;;;;;;4998380;28;20093;-90
2023/09/13 12:39:14;;;;;;;8.02;1.73;;;18.60;99.90;;;;;;4980630;28;20781;-88
2023/09/13 12:41:41;;;;;;;7.25;1.52;;;18.70;99.90;;;;;;5011446;28;20042;-90
2023/09/13 12:44:10;;;;;;;10.27;1.30;;;18.70;99.90;;;;;;5013750;28;20050;-87
2023/09/13 12:46:37;;;;;;;6.25;1.50;;;18.70;99.90;;;;;;4997951;28;20081;-89
2023/09/13 12:49:04;;;;;;;10.20;1.80;;;18.70;99.90;;;;;;5013610;28;20050;-89
2023/09/13 12:51:33;;;;;;;8.65;1.70;;;18.60;99.90;;;;;;4988214;28;20042;-88